createdAt,value
2019-02-04T00:02:53.705Z,10.10
2019-02-04T00:07:54.985Z,11.00
2019-02-04T00:12:56.236Z,11.30
2019-02-04T00:17:57.450Z,12.60
2019-02-04T00:22:58.706Z,13.20
2019-02-04T00:27:59.952Z,14.00
2019-02-04T00:33:01.195Z,14.50
2019-02-04T00:38:02.673Z,15.00
2019-02-04T00:43:04.234Z,15.50
2019-02-04T00:48:05.576Z,15.30
2019-02-04T00:53:06.825Z,14.90
2019-02-04T00:58:08.172Z,14.60
2019-02-04T01:03:11.534Z,14.60
2019-02-04T01:08:13.076Z,14.60
2019-02-04T01:13:14.314Z,15.00
2019-02-04T01:18:15.566Z,15.70
2019-02-04T01:23:16.917Z,15.70
2019-02-04T01:28:18.168Z,15.40
2019-02-04T01:33:19.508Z,15.30
2019-02-04T01:38:20.746Z,15.40
2019-02-04T01:43:22.076Z,15.30
2019-02-04T01:48:23.313Z,15.30
2019-02-04T01:53:24.545Z,15.30
2019-02-04T01:58:25.787Z,15.60
2019-02-04T02:03:27.042Z,15.60
2019-02-04T02:08:28.274Z,15.60
2019-02-04T02:13:30.037Z,15.50
2019-02-04T02:18:31.259Z,15.40
2019-02-04T02:23:32.493Z,15.30
2019-02-04T02:28:33.767Z,15.30
2019-02-04T02:33:35.010Z,15.20
2019-02-04T02:38:36.252Z,15.20
2019-02-04T02:43:37.487Z,15.30
2019-02-04T02:48:38.734Z,15.10
2019-02-04T02:53:40.087Z,15.00
2019-02-04T02:58:41.323Z,15.00
2019-02-04T03:03:42.669Z,15.00
2019-02-04T03:08:43.891Z,14.90
2019-02-04T03:13:45.207Z,14.60
2019-02-04T03:18:46.845Z,14.50
2019-02-04T03:23:48.093Z,14.40
2019-02-04T03:28:49.350Z,14.20
2019-02-04T03:33:50.582Z,13.90
2019-02-04T03:38:51.825Z,14.10
2019-02-04T03:43:53.077Z,14.60
2019-02-04T03:48:54.313Z,14.30
2019-02-04T03:53:55.576Z,14.10
2019-02-04T03:58:56.920Z,14.00
2019-02-04T04:03:58.171Z,14.00
2019-02-04T04:08:59.415Z,14.00
2019-02-04T04:14:01.164Z,14.00
2019-02-04T04:19:02.723Z,13.90
2019-02-04T04:24:04.174Z,13.60
2019-02-04T04:29:05.431Z,13.80
2019-02-04T04:34:06.676Z,13.70
2019-02-04T04:39:07.940Z,13.60
2019-02-04T04:44:09.267Z,13.50
2019-02-04T04:49:10.912Z,13.50
2019-02-04T04:54:12.150Z,13.40
2019-02-04T04:59:13.394Z,13.50
2019-02-04T05:04:14.638Z,13.60
2019-02-04T05:09:15.881Z,13.50
2019-02-04T05:14:17.137Z,13.50
2019-02-04T05:19:18.407Z,13.40
2019-02-04T05:24:19.783Z,13.40
2019-02-04T05:29:21.439Z,13.40
2019-02-04T05:34:22.671Z,13.40
2019-02-04T05:39:23.916Z,13.20
2019-02-04T05:44:25.154Z,13.10
2019-02-04T05:49:26.417Z,13.10
2019-02-04T05:54:28.066Z,13.20
2019-02-04T05:59:29.335Z,13.10
2019-02-04T06:04:30.694Z,13.00
2019-02-04T06:09:31.978Z,12.70
2019-02-04T06:14:33.233Z,12.70
2019-02-04T06:19:34.499Z,12.80
2019-02-04T06:24:35.732Z,12.80
2019-02-04T06:29:36.979Z,12.50
2019-02-04T06:34:38.424Z,12.30
2019-02-04T06:39:39.672Z,12.20
2019-02-04T06:44:40.915Z,12.20
2019-02-04T06:49:42.149Z,12.30
2019-02-04T06:54:43.397Z,12.10
2019-02-04T06:59:44.629Z,12.30
2019-02-04T07:04:45.877Z,12.10
2019-02-04T07:09:47.140Z,12.80
2019-02-04T07:14:48.699Z,12.70
2019-02-04T07:19:49.958Z,13.30
2019-02-04T07:24:51.211Z,13.40
2019-02-04T07:29:52.460Z,13.10
2019-02-04T07:34:53.719Z,13.20
2019-02-04T07:39:54.985Z,13.20
2019-02-04T07:44:56.231Z,12.90
2019-02-04T07:49:57.480Z,9.40
2019-02-04T07:54:58.927Z,7.40
2019-02-04T08:00:00.337Z,6.00
2019-02-04T08:05:02.220Z,2.60
2019-02-04T08:10:08.864Z,1.00
2019-02-04T08:15:18.566Z,1.00
2019-02-04T08:20:22.599Z,1.00
2019-02-04T08:25:25.843Z,3.00
2019-02-04T08:30:33.070Z,1.00
2019-02-04T08:35:34.333Z,1.00
2019-02-04T08:40:35.790Z,1.00
2019-02-04T08:45:37.247Z,1.00
2019-02-04T08:50:38.605Z,1.00
2019-02-04T08:55:39.857Z,1.00
2019-02-04T09:00:41.092Z,1.00
2019-02-04T09:05:42.455Z,1.00
2019-02-04T09:10:43.818Z,1.80
2019-02-04T09:15:45.188Z,1.00
2019-02-04T09:20:46.425Z,1.00
2019-02-04T09:25:48.053Z,3.70
2019-02-04T09:30:49.330Z,2.00
2019-02-04T09:35:50.545Z,1.70
2019-02-04T09:40:51.797Z,1.60
2019-02-04T09:45:53.063Z,1.00
2019-02-04T09:50:54.505Z,2.40
2019-02-04T09:55:57.106Z,2.50
2019-02-04T10:00:58.822Z,1.20
2019-02-04T10:06:00.469Z,2.70
2019-02-04T10:11:01.712Z,3.60
2019-02-04T10:16:03.364Z,3.30
2019-02-04T10:21:04.850Z,1.90
2019-02-04T10:26:06.097Z,1.20
2019-02-04T10:31:07.475Z,1.00
2019-02-04T10:36:08.832Z,1.00
2019-02-04T10:41:10.194Z,1.00
2019-02-04T10:46:11.576Z,1.00
2019-02-04T10:51:12.883Z,1.00
2019-02-04T10:56:16.319Z,1.00
2019-02-04T11:01:17.317Z,1.00
2019-02-04T11:06:18.569Z,1.00
2019-02-04T11:11:20.564Z,1.00
2019-02-04T11:16:21.966Z,1.00
2019-02-04T11:21:23.385Z,1.00
2019-02-04T11:26:24.577Z,1.00
2019-02-04T11:31:25.852Z,1.00
2019-02-04T11:36:27.078Z,1.00
2019-02-04T11:41:28.573Z,1.00
2019-02-04T11:46:30.136Z,1.00
2019-02-04T11:51:31.384Z,1.00
2019-02-04T11:56:32.853Z,1.00
2019-02-04T12:01:34.246Z,1.00
2019-02-04T12:06:35.515Z,1.00
2019-02-04T12:11:36.979Z,1.00
2019-02-04T12:16:38.336Z,1.00
2019-02-04T12:21:39.583Z,1.00
2019-02-04T12:26:41.041Z,1.00
2019-02-04T12:31:42.293Z,1.00
2019-02-04T12:36:43.560Z,1.00
2019-02-04T12:41:45.105Z,1.00
2019-02-04T12:46:46.569Z,1.00
2019-02-04T12:51:47.828Z,1.00
2019-02-04T12:56:49.082Z,1.00
2019-02-04T13:01:50.328Z,1.00
2019-02-04T13:06:51.577Z,1.00
2019-02-04T13:11:52.890Z,1.00
2019-02-04T13:16:54.266Z,1.00
2019-02-04T13:21:55.561Z,1.00
2019-02-04T13:26:56.940Z,1.00
2019-02-04T13:31:58.336Z,1.00
2019-02-04T13:37:00.007Z,1.00
2019-02-04T13:42:01.389Z,1.00
2019-02-04T13:47:05.703Z,1.00
2019-02-04T13:52:06.611Z,1.00
2019-02-04T13:57:08.280Z,1.00
2019-02-04T14:02:10.056Z,1.00
2019-02-04T14:07:11.409Z,1.00
2019-02-04T14:12:12.663Z,1.00
2019-02-04T14:17:13.890Z,1.00
2019-02-04T14:22:15.146Z,1.00
2019-02-04T14:27:16.452Z,1.00
2019-02-04T14:32:17.904Z,1.00
2019-02-04T14:37:19.170Z,1.00
2019-02-04T14:42:20.417Z,1.00
2019-02-04T14:47:33.085Z,1.00
2019-02-04T14:52:52.056Z,1.00
2019-02-04T14:58:25.741Z,1.00
2019-02-04T15:03:56.813Z,1.00
2019-02-04T15:09:22.472Z,1.00
2019-02-04T15:14:41.980Z,1.00
2019-02-04T15:20:28.386Z,1.00
2019-02-04T15:26:00.620Z,1.00
2019-02-04T15:31:22.694Z,1.00
2019-02-04T15:36:29.709Z,1.00
2019-02-04T15:41:42.951Z,1.00
2019-02-04T15:47:10.825Z,1.00
2019-02-04T15:52:12.056Z,1.00
2019-02-04T15:57:13.304Z,1.00
2019-02-04T16:02:14.669Z,1.00
2019-02-04T16:07:15.921Z,1.00
2019-02-04T16:12:17.272Z,1.00
2019-02-04T16:17:18.626Z,1.00
2019-02-04T16:22:19.914Z,1.00
2019-02-04T16:27:21.170Z,1.00
2019-02-04T16:32:22.521Z,1.00
2019-02-04T16:37:23.812Z,1.00
2019-02-04T16:42:25.080Z,1.00
2019-02-04T16:47:26.346Z,1.00
2019-02-04T16:52:27.618Z,1.00
2019-02-04T16:57:28.875Z,1.00
2019-02-04T17:02:30.133Z,1.00
2019-02-04T17:07:31.390Z,1.00
2019-02-04T17:12:32.673Z,1.00
2019-02-04T17:17:34.033Z,1.00
2019-02-04T17:22:35.633Z,1.00
2019-02-04T17:27:37.112Z,1.00
2019-02-04T17:32:38.372Z,1.00
2019-02-04T17:37:39.749Z,1.00
2019-02-04T17:42:41.635Z,1.00
2019-02-04T17:47:45.300Z,1.00
2019-02-04T17:52:47.184Z,1.00
2019-02-04T17:57:48.435Z,1.00
2019-02-04T18:02:49.971Z,1.00
2019-02-04T18:07:51.330Z,1.00
2019-02-04T18:12:52.581Z,1.00
2019-02-04T18:17:54.048Z,1.00
2019-02-04T18:22:55.357Z,1.00
2019-02-04T18:27:58.554Z,1.00
2019-02-04T18:33:00.243Z,1.00
2019-02-04T18:38:03.614Z,1.00
2019-02-04T18:43:04.969Z,1.00
2019-02-04T18:48:06.343Z,1.00
2019-02-04T18:53:08.103Z,1.00
2019-02-04T18:58:09.374Z,1.00
2019-02-04T19:03:17.434Z,1.00
2019-02-04T19:08:14.305Z,3.60
2019-02-04T19:13:15.800Z,4.90
2019-02-04T19:18:18.771Z,4.80
2019-02-04T19:23:20.201Z,5.20
2019-02-04T19:28:21.498Z,5.40
2019-02-04T19:33:22.780Z,5.50
2019-02-04T19:38:24.175Z,5.80
2019-02-04T19:43:25.457Z,5.90
2019-02-04T19:48:26.775Z,5.20
2019-02-04T19:53:28.053Z,5.70
2019-02-04T19:58:29.561Z,5.90
2019-02-04T20:03:30.848Z,6.90
2019-02-04T20:08:32.525Z,7.20
2019-02-04T20:13:53.751Z,7.20
2019-02-04T20:18:55.026Z,7.10
2019-02-04T20:23:56.400Z,7.00
2019-02-04T20:28:57.689Z,7.00
2019-02-04T20:33:58.988Z,7.00
2019-02-04T20:39:00.453Z,7.00
2019-02-04T20:44:01.724Z,6.90
2019-02-04T20:49:03.532Z,7.10
2019-02-04T20:54:05.087Z,7.70
2019-02-04T20:59:06.327Z,7.60
2019-02-04T21:04:07.618Z,7.50
2019-02-04T21:09:09.603Z,7.80
2019-02-04T21:14:10.935Z,7.80
2019-02-04T21:19:12.224Z,7.60
2019-02-04T21:24:13.514Z,7.40
2019-02-04T21:29:15.072Z,7.30
2019-02-04T21:34:16.339Z,7.10
2019-02-04T21:39:17.633Z,6.60
2019-02-04T21:44:18.932Z,7.00
2019-02-04T21:49:20.210Z,7.10
2019-02-04T21:54:21.459Z,7.00
2019-02-04T21:59:22.703Z,8.10
2019-02-04T22:04:23.984Z,8.40
2019-02-04T22:09:25.640Z,8.10
2019-02-04T22:14:26.996Z,8.10
2019-02-04T22:19:28.270Z,7.60
2019-02-04T22:24:29.515Z,7.50
2019-02-04T22:29:31.114Z,7.20
2019-02-04T22:34:32.435Z,7.20
2019-02-04T22:39:33.675Z,7.50
2019-02-04T22:44:34.933Z,6.40
2019-02-04T22:49:36.198Z,7.20
2019-02-04T22:54:37.441Z,7.00
2019-02-04T22:59:38.706Z,6.70
2019-02-04T23:04:40.377Z,5.40
2019-02-04T23:09:41.700Z,5.10
2019-02-04T23:14:43.062Z,4.70
2019-02-04T23:19:44.323Z,4.70
2019-02-04T23:24:45.566Z,1.70
2019-02-04T23:29:46.806Z,3.50
2019-02-04T23:34:48.044Z,1.00
2019-02-04T23:39:49.304Z,1.00
2019-02-04T23:44:50.648Z,1.00
2019-02-04T23:49:51.923Z,1.00
2019-02-04T23:54:53.157Z,1.00
2019-02-04T23:59:54.391Z,1.00
